Rowena, Texas
Current Conditions -  °F | °C
As of 8:51 AM on Tuesday 21 Oct 2014 (Local Time) from KSJT Reporting Station
Clear Clear  
Wind Chill: 58°   Ceiling: Unl
Heat Index: 58°   Visibility: 10mi
Dew Point: 53°   Wind: 0mph
Humidity: 84%   Direction: NA
Pressure: 30.12"   Gusts: NA
Location:  31.65°N, 100.05°W
Report Text: KSJT 211351Z 00000KT 10SM CLR 14/12 A3012 RMK AO2 SLP188 T01440117
Loading
Personal Weather Stations






























Interactive Weather Map New forecast layout! Learn more

10-Day Weather Forecast

Advertisements
Track Severe Weather on mobile